Last 24 Hours

Coyote Canyon

10 Minute Data | America/Los_Angeles
as of 5/6/26 7:50 PM PDT
Date & Time Temp (°F) Dew Pt (°F) RH (%) Wind Spd (mph) Wind Dir (°) Wind Gust (mph) Wind Gst Dir (°) Daily Max Temp (°F) Daily Min Temp (°F)
5/6/26 - 1950 59.4 49.5 70 11.6 WNW | 298 16.2 WNW | 300 71.3 40.6
5/6/26 - 1940 60.6 49.6 67 11.7 W | 275 15.6 W | 265 71.3 40.6
5/6/26 - 1930 61.1 49.4 65 11.1 W | 277 14.7 W | 272 71.3 40.6
5/6/26 - 1920 62.1 49.3 63 11.7 W | 278 17.8 W | 280 71.3 40.6
5/6/26 - 1910 63.0 49.2 61 12.8 W | 273 17.2 W | 263 71.3 40.6
5/6/26 - 1900 63.9 49.1 58 12.7 W | 269 17.3 W | 270 71.3 40.6
5/6/26 - 1850 65.2 48.2 54 12.5 W | 272 19.6 W | 274 71.3 40.6
5/6/26 - 1840 65.8 47.8 52 14.1 W | 274 20.9 WNW | 290 71.3 40.6
5/6/26 - 1830 66.1 46.3 49 13.2 WNW | 286 20.0 WNW | 294 71.3 40.6
5/6/26 - 1820 66.8 45.5 46 13.0 WNW | 282 20.8 W | 273 71.3 40.6
5/6/26 - 1810 66.6 44.8 45 15.6 W | 281 21.4 WNW | 287 71.3 40.6
5/6/26 - 1800 67.1 44.6 44 15.4 WNW | 284 24.6 WNW | 285 71.3 40.6
5/6/26 - 1750 67.1 44.9 45 15.9 WNW | 290 23.8 WNW | 299 71.3 40.6
5/6/26 - 1740 67.6 44.8 44 16.8 W | 277 22.5 WNW | 286 71.3 40.6
5/6/26 - 1730 68.1 44.5 42 16.3 W | 275 26.5 WSW | 256 71.3 40.6
5/6/26 - 1720 68.4 43.3 40 14.0 WNW | 284 24.3 W | 271 71.3 40.6
5/6/26 - 1710 68.2 43.0 40 16.6 WNW | 297 26.7 WNW | 284 71.3 40.6
5/6/26 - 1700 68.3 42.6 39 16.5 WNW | 291 24.0 NW | 314 71.3 40.6
5/6/26 - 1650 68.4 42.2 39 15.9 WNW | 286 22.5 W | 275 71.3 40.6
5/6/26 - 1640 69.0 42.4 38 10.7 WNW | 299 19.6 W | 272 71.3 40.6
5/6/26 - 1630 69.5 42.3 37 9.2 WNW | 301 21.0 NW | 314 71.3 40.6
5/6/26 - 1620 68.8 40.4 36 10.6 WNW | 296 18.2 W | 273 71.3 40.6
5/6/26 - 1610 68.7 42.1 38 14.0 NW | 305 21.0 NW | 308 71.3 40.6
5/6/26 - 1600 69.0 42.3 38 10.5 NW | 321 21.3 WNW | 295 71.3 40.6
5/6/26 - 1550 69.6 41.6 36 10.6 NW | 316 17.0 NNW | 346 71.3 40.6
5/6/26 - 1540 70.2 36.5 29 9.9 NNW | 334 17.8 NNW | 330 71.3 40.6
5/6/26 - 1530 70.2 36.1 29 10.6 NNE | 33 21.3 N | 352 71.3 40.6
5/6/26 - 1520 70.4 36.1 28 4.6 E | 96 12.6 E | 98 71.3 40.6
5/6/26 - 1510 69.6 35.7 29 8.0 ESE | 116 15.3 SE | 127 71.0 40.6
5/6/26 - 1500 69.8 35.8 29 6.1 E | 96 13.2 SSE | 153 71.0 40.6
5/6/26 - 1450 69.8 35.9 29 5.4 ESE | 113 15.0 ESE | 115 71.0 40.6
5/6/26 - 1440 68.6 35.5 29 10.4 ESE | 109 19.9 ESE | 106 70.7 40.6
5/6/26 - 1430 68.2 35.5 30 7.1 ENE | 72 17.2 ESE | 110 70.7 40.6
5/6/26 - 1420 69.4 35.7 29 11.2 ESE | 118 19.8 ESE | 105 70.7 40.6
5/6/26 - 1410 68.8 35.6 29 12.2 ESE | 114 20.6 E | 89 69.9 40.6
5/6/26 - 1400 68.7 35.7 30 8.5 ESE | 123 17.5 ESE | 123 69.9 40.6
5/6/26 - 1350 68.2 35.6 30 13.6 ESE | 115 22.8 ESE | 118 69.9 40.6
5/6/26 - 1340 68.5 35.7 30 12.7 ESE | 120 21.3 ESE | 110 69.9 40.6
5/6/26 - 1330 67.8 35.6 30 12.7 SE | 127 22.0 E | 92 69.9 40.6
5/6/26 - 1320 67.5 35.5 31 12.6 ESE | 112 19.6 ENE | 77 69.9 40.6
5/6/26 - 1310 67.6 35.4 30 13.4 ESE | 106 24.3 ESE | 114 69.9 40.6
5/6/26 - 1300 68.2 35.5 30 9.4 E | 98 19.6 ESE | 105 69.9 40.6
5/6/26 - 1250 68.0 35.3 30 8.0 ENE | 69 17.5 ENE | 77 69.8 40.6
5/6/26 - 1240 67.5 34.8 30 12.9 NNE | 31 20.3 NNE | 22 68.2 40.6
5/6/26 - 1230 67.2 34.8 30 10.2 NE | 45 22.9 NE | 35 67.8 40.6
5/6/26 - 1220 67.0 35.9 32 7.4 ENE | 59 16.7 NE | 41 67.5 40.6
5/6/26 - 1210 65.9 38.2 36 4.1 ESE | 119 13.4 ENE | 58 67.5 40.6
5/6/26 - 1200 65.0 38.8 38 4.9 S | 182 14.9 SSW | 198 65.8 40.6
5/6/26 - 1150 63.9 38.5 39 4.6 S | 186 11.3 S | 187 65.3 40.6
5/6/26 - 1140 63.7 38.4 39 8.8 SSW | 195 16.2 S | 188 64.4 40.6
5/6/26 - 1130 63.3 38.4 40 9.9 S | 176 18.9 E | 91 64.0 40.6
5/6/26 - 1120 63.2 38.1 39 7.1 S | 171 13.5 S | 178 64.0 40.6
5/6/26 - 1110 62.6 37.5 39 5.0 S | 177 10.4 SSE | 154 63.6 40.6
5/6/26 - 1100 62.0 37.5 40 7.9 S | 169 14.0 SSE | 164 62.6 40.6
5/6/26 - 1050 61.1 37.4 41 8.8 SSE | 168 15.3 SSE | 155 61.7 40.6
5/6/26 - 1040 60.2 37.4 43 9.4 S | 171 15.9 ESE | 110 60.6 40.6
5/6/26 - 1030 59.8 37.0 43 9.8 S | 170 14.5 SSE | 165 60.4 40.6
5/6/26 - 1020 59.2 38.1 45 12.0 SSE | 167 18.0 E | 88 59.5 40.6
5/6/26 - 1010 58.2 38.5 48 13.2 SSE | 148 19.7 E | 89 58.9 40.6
5/6/26 - 1000 57.5 39.4 51 14.0 SE | 137 18.9 E | 85 58.1 40.6
5/6/26 - 0950 56.6 39.7 53 15.0 E | 95 20.9 E | 88 56.9 40.6
5/6/26 - 0940 55.9 40.5 56 14.5 E | 92 19.4 E | 81 56.7 40.6
5/6/26 - 0930 54.9 41.4 60 15.2 E | 99 21.0 E | 93 55.5 40.6
5/6/26 - 0920 54.3 41.2 61 15.1 ESE | 107 20.5 E | 95 54.7 40.6
5/6/26 - 0910 53.5 40.4 61 15.9 E | 98 19.7 E | 95 53.8 40.6
5/6/26 - 0900 52.8 40.2 62 16.0 WNW | 295 22.6 W | 279 53.5 40.6
5/6/26 - 0850 51.9 39.9 64 16.7 ESE | 108 21.6 ESE | 107 52.3 40.6
5/6/26 - 0840 51.2 39.9 65 16.6 W | 270 20.5 ESE | 114 51.5 40.6
5/6/26 - 0830 50.0 39.9 68 17.4 WNW | 288 21.3 WNW | 292 50.5 40.6
5/6/26 - 0820 49.2 40.5 72 16.8 WNW | 292 20.2 WNW | 285 49.6 40.6
5/6/26 - 0810 48.6 40.2 73 16.8 WNW | 292 20.7 WNW | 293 48.9 40.6
5/6/26 - 0800 47.4 40.4 77 17.6 WNW | 290 23.1 WNW | 299 48.2 40.6
5/6/26 - 0750 46.2 40.9 82 18.0 WNW | 291 22.4 W | 280 46.6 40.6
5/6/26 - 0740 45.3 40.8 84 19.5 SW | 236 23.9 WSW | 258 45.7 40.6
5/6/26 - 0730 44.7 40.5 85 20.3 WNW | 286 25.3 WNW | 282 45.0 40.6
5/6/26 - 0720 44.2 40.2 86 20.1 WNW | 285 25.6 W | 278 44.4 40.6
5/6/26 - 0710 43.8 40.1 87 20.8 WNW | 287 25.6 WNW | 292 44.0 40.6
5/6/26 - 0700 43.0 40.2 90 20.9 WNW | 288 24.9 WNW | 283 43.3 40.6
5/6/26 - 0650 42.4 40.0 91 19.8 WNW | 290 24.3 WNW | 294 42.6 40.6
5/6/26 - 0640 42.4 39.9 90 21.0 WNW | 292 26.2 WNW | 292 42.6 40.6
5/6/26 - 0630 42.0 39.7 92 20.7 WNW | 294 25.9 WNW | 290 42.2 40.6
5/6/26 - 0620 41.5 39.8 94 20.4 WNW | 291 25.8 WNW | 287 42.2 40.6
5/6/26 - 0610 41.1 40.0 96 20.7 WNW | 290 26.2 WNW | 291 42.2 40.6
5/6/26 - 0600 40.8 39.8 96 19.2 WNW | 293 25.0 WNW | 294 42.2 40.6
5/6/26 - 0550 41.0 40.0 96 19.0 WNW | 292 24.1 WNW | 285 42.2 40.6
5/6/26 - 0540 41.1 40.1 96 19.5 WNW | 293 24.0 WNW | 288 42.2 40.6
5/6/26 - 0530 41.1 40.3 97 19.2 WNW | 295 24.3 WNW | 296 42.2 40.6
5/6/26 - 0520 40.8 40.3 98 19.5 WNW | 294 25.6 WNW | 295 42.2 40.6
5/6/26 - 0510 40.8 40.2 98 18.8 WNW | 297 24.5 WNW | 290 42.2 40.8
5/6/26 - 0500 41.0 40.2 97 20.9 WNW | 299 26.0 WNW | 295 42.2 40.9
5/6/26 - 0450 41.0 40.1 96 21.1 WNW | 296 26.0 WNW | 295 42.2 40.9
5/6/26 - 0440 40.9 39.9 96 20.5 WNW | 297 26.7 WNW | 291 42.2 40.9
5/6/26 - 0430 41.0 39.7 95 21.6 WNW | 299 26.6 NW | 304 42.2 40.9
5/6/26 - 0420 41.5 39.6 93 22.0 WNW | 300 26.0 WNW | 294 42.2 40.9
5/6/26 - 0410 41.9 39.7 92 23.4 WNW | 301 27.0 WNW | 301 42.2 40.9
5/6/26 - 0400 42.1 39.7 91 24.3 WNW | 302 27.6 NW | 308 42.2 40.9
5/6/26 - 0350 42.0 40.1 93 23.6 WNW | 301 27.2 NW | 304 42.2 40.9
5/6/26 - 0340 41.3 40.5 97 20.8 WNW | 298 25.9 WNW | 297 41.8 40.9
5/6/26 - 0330 41.1 40.9 99 20.6 WNW | 282 26.7 WNW | 294 41.7 40.9
5/6/26 - 0320 41.0 41.0 100 20.9 W | 273 27.2 W | 270 41.7 40.9
5/6/26 - 0310 41.0 41.0 100 20.0 WNW | 288 25.2 WNW | 291 41.7 40.9
5/6/26 - 0300 40.9 40.9 100 20.0 WNW | 287 26.4 WNW | 292 41.7 40.9
5/6/26 - 0250 41.0 41.0 100 20.0 WNW | 290 25.1 WNW | 293 41.7 40.9
5/6/26 - 0240 41.0 41.0 100 17.6 WNW | 292 24.6 WNW | 284 41.7 40.9
5/6/26 - 0230 41.0 41.0 100 18.5 WNW | 296 24.4 WNW | 291 41.7 40.9
5/6/26 - 0220 41.1 41.1 100 18.6 WNW | 285 24.2 NW | 308 41.7 40.9
5/6/26 - 0210 41.2 41.2 100 18.9 WNW | 282 24.2 WNW | 294 41.7 40.9
5/6/26 - 0200 41.2 41.0 99 17.8 WNW | 297 24.0 W | 279 41.7 40.9
5/6/26 - 0150 41.3 40.9 98 17.6 WNW | 298 22.8 NW | 307 41.7 40.9
5/6/26 - 0140 41.1 40.3 97 18.6 WNW | 298 24.3 WNW | 295 41.7 40.9
5/6/26 - 0130 40.9 39.7 95 16.7 WNW | 291 21.2 WNW | 282 41.7 40.9
5/6/26 - 0120 41.2 39.4 93 15.4 WNW | 299 20.8 WNW | 296 41.7 41.0
5/6/26 - 0110 41.5 39.2 91 14.6 WNW | 291 20.0 NW | 304 41.7 41.3
5/6/26 - 0100 41.8 39.1 90 15.4 WNW | 294 21.7 WNW | 301 54.8 41.2
5/6/26 - 0050 42.1 39.3 90 15.8 SE | 132 21.4 ESE | 106 54.8 41.2
5/6/26 - 0040 42.5 39.6 89 17.0 SE | 128 22.4 SE | 130 54.8 41.2
5/6/26 - 0030 42.8 39.7 88 16.4 SE | 130 21.0 SE | 128 54.8 41.2
5/6/26 - 0020 42.9 39.6 88 15.5 SE | 125 21.6 ESE | 123 54.8 41.2
5/6/26 - 0010 42.8 40.1 90 13.9 ESE | 121 20.2 SE | 124 54.8 41.2
5/6/26 - 0000 42.6 40.2 91 14.2 ESE | 120 21.6 ESE | 121 54.8 41.2
5/5/26 - 2350 42.6 40.0 90 14.1 ESE | 122 19.6 ESE | 122 54.8 41.2
5/5/26 - 2340 42.8 40.1 90 15.4 SE | 126 21.2 ESE | 120 54.8 41.2
5/5/26 - 2330 42.7 40.2 91 14.7 SE | 128 19.7 SE | 133 54.8 41.2
5/5/26 - 2320 42.6 40.4 92 14.4 SE | 127 20.0 SE | 130 54.8 41.2
5/5/26 - 2310 42.5 40.2 91 13.1 SE | 125 20.4 SE | 124 54.8 41.2
5/5/26 - 2300 42.6 40.1 91 15.1 SE | 125 19.7 ESE | 123 54.8 41.2
5/5/26 - 2250 42.7 40.3 91 15.9 SE | 127 21.9 SE | 128 54.8 41.2
5/5/26 - 2240 42.5 40.0 91 17.5 SE | 127 23.8 SE | 129 54.8 41.2
5/5/26 - 2230 42.2 39.6 91 16.2 SE | 128 23.4 SE | 126 54.8 41.2
5/5/26 - 2220 42.1 39.3 90 15.4 SE | 128 21.0 SE | 125 54.8 41.2
5/5/26 - 2210 42.5 39.4 89 16.5 SE | 124 23.0 ESE | 121 54.8 41.2
5/5/26 - 2200 42.4 39.2 88 15.5 SE | 124 22.7 SE | 124 54.8 41.2
5/5/26 - 2150 42.5 39.4 88 14.5 SE | 127 21.1 ESE | 120 54.8 41.2
5/5/26 - 2140 42.7 39.4 88 17.6 SE | 128 24.6 SE | 125 54.8 41.2
5/5/26 - 2130 42.9 39.3 87 18.5 SE | 128 25.3 SE | 125 54.8 41.2
5/5/26 - 2120 43.0 39.6 88 17.7 SE | 131 25.2 ESE | 109 54.8 41.2
5/5/26 - 2110 43.2 39.9 88 19.0 SE | 129 27.8 ESE | 109 54.8 41.2
5/5/26 - 2100 43.2 40.7 91 17.8 SE | 131 24.0 SE | 127 54.8 41.2
5/5/26 - 2050 43.3 41.1 92 18.2 SE | 131 25.6 SE | 127 54.8 41.2
5/5/26 - 2040 43.5 41.1 91 17.9 SE | 138 26.6 SE | 134 54.8 41.2
5/5/26 - 2030 43.7 41.3 91 19.4 SE | 132 26.5 SE | 126 54.8 41.2
5/5/26 - 2020 44.0 41.5 91 16.3 SE | 128 23.1 ESE | 123 54.8 41.2
5/5/26 - 2010 44.2 41.6 91 17.0 SE | 126 23.8 SE | 124 54.8 41.2
5/5/26 - 2000 44.5 41.9 90 17.5 ESE | 122 23.9 SE | 127 54.8 41.2
5/5/26 - 1950 44.9 42.2 90 17.5 SE | 131 25.4 WNW | 283 54.8 41.2
Max 70.4 49.6 100 24.3 - 27.8 - 71.3 41.3
Avg 52.9 40.2 68 15.1 - 21.6 - - -
Min 40.8 34.8 28 4.1 - 10.4 - 41.7 40.6